Hauptseite
METAR-TAF:

METAR-TAF

Flughäfen :

Beirut, Libanon

Breite: 33-49N, Länge: 035-29E, Höhe: 29 m

Beobachtung

Neuester Wetterbericht von vor 54 Minuten, um 08:00 UTC
Wind 10 kt aus West/Südwest
Temperatur 29°C
Luftfeuchtigkeit 58%
Luftdruck 1011 hPa
Sichtweite: 8000 m
Aufgelockert bewölkt in der Höhe von 2600 ft

METAR: OLBA 170800Z 24010KT 8000 SCT026 29/20 Q1011 NOSIG

Zeit: 11:54 (08:54 UTC)

Prognose

Neuester Wetterbericht von vor 4 Stunden und 54 Minuten, um 04:00 UTC
Gültige Prognose vom 17 um 06 UTC bis 18 um 12 UTC
Wind 15 kt aus West/Südwest
Sichtweite: 8000 m
Aufgelockert bewölkt in der Höhe von 2600 ft
Zeitweise
vom 17 um 18 UTC bis 18 um 06 UTC
Sichtweite: 5000 m
feuchter Dunst
Übergehend zu
vom 18 um 09 UTC bis 18 um 12 UTC
Wind 20 kt aus West/Südwest
Sichtweite: 8000 m

TAF: OLBA 170400Z 1706/1812 24015KT 8000 SCT026 TEMPO 1718/1806 5000 BR BECMG 1809/1812 25020KT 8000

Wetterbeobachtungen und Prognosen von mehr als 4000 Flughäfen (METAR und TAF Bericht).

Die verfügbaren Stationen werden durch gelbe und rote Markierungen auf der Karte dargestellt.

Führen Sie die Maus auf sie, um den Namen der Station zu sehen.

Darauf klicken, um die Beobachtung von Wetterbeobachtungen und Prognosen zu sehen.

Um die Karte zu ändern : klicken Sie auf den grünen Tasten mit einem schwarzen Kreuz Zum Vergrößern, auf den grünen Button mit einem Gedankenstrich zu verkleinern, oder auf die grünen Pfeile für benachbarte Karten.


METAR-TAF: